Simpson, Louisiana
Current Conditions -  °F | °C
As of 6:58 AM on Thursday 18 Dec 2014 (Local Time) from KPOE Reporting Station
Overcast Overcast  
Wind Chill: 53°   Ceiling: 1300
Heat Index: 53°   Visibility: 10mi
Dew Point: 45°   Wind: 7mph
Humidity: 75%   Direction: 120°ESE
Pressure: 30.1"   Gusts: NA
Location:  31.25°N, 93.02°W
Report Text: KPOE 181258Z AUTO 12006KT 10SM OVC013 12/07 A3010 RMK AO2 SLP195 T01150073
Loading
Personal Weather Stations






























Interactive Weather Map New forecast layout! Learn more

10-Day Weather Forecast

Advertisements
Track Severe Weather on mobile